sensor_id;sensor_type;location;lat;lon;timestamp;pressure;altitude;pressure_sealevel;temperature;humidity
77454;BME280;66538;53.150;18.160;2023-05-10T00:00:30;101757.02;;;9.66;48.61
77454;BME280;66538;53.150;18.160;2023-05-10T00:03:08;101757.69;;;9.62;48.86
77454;BME280;66538;53.150;18.160;2023-05-10T00:05:35;101755.06;;;9.59;49.07
77454;BME280;66538;53.150;18.160;2023-05-10T00:08:02;101755.61;;;9.57;49.15
77454;BME280;66538;53.150;18.160;2023-05-10T00:10:28;101758.33;;;9.54;49.13
77454;BME280;66538;53.150;18.160;2023-05-10T00:12:55;101755.36;;;9.50;49.18
77454;BME280;66538;53.150;18.160;2023-05-10T00:15:22;101756.40;;;9.46;49.45
77454;BME280;66538;53.150;18.160;2023-05-10T00:17:48;101754.16;;;9.43;49.62
77454;BME280;66538;53.150;18.160;2023-05-10T00:20:15;101752.36;;;9.40;49.55
77454;BME280;66538;53.150;18.160;2023-05-10T00:22:42;101748.25;;;9.36;49.89
77454;BME280;66538;53.150;18.160;2023-05-10T00:25:08;101748.44;;;9.32;50.04
77454;BME280;66538;53.150;18.160;2023-05-10T00:27:36;101747.04;;;9.28;49.99
77454;BME280;66538;53.150;18.160;2023-05-10T00:30:03;101744.56;;;9.25;50.07
77454;BME280;66538;53.150;18.160;2023-05-10T00:32:30;101738.18;;;9.20;50.42
77454;BME280;66538;53.150;18.160;2023-05-10T00:34:57;101738.20;;;9.17;49.86
77454;BME280;66538;53.150;18.160;2023-05-10T00:37:24;101741.83;;;9.14;50.41
77454;BME280;66538;53.150;18.160;2023-05-10T00:39:50;101739.67;;;9.11;50.60
77454;BME280;66538;53.150;18.160;2023-05-10T00:42:17;101740.79;;;9.07;50.33
77454;BME280;66538;53.150;18.160;2023-05-10T00:44:44;101734.37;;;9.05;50.39
77454;BME280;66538;53.150;18.160;2023-05-10T00:47:11;101732.64;;;9.00;50.63
77454;BME280;66538;53.150;18.160;2023-05-10T00:49:38;101732.80;;;8.98;50.52
77454;BME280;66538;53.150;18.160;2023-05-10T00:52:05;101732.71;;;8.96;50.92
77454;BME280;66538;53.150;18.160;2023-05-10T00:54:32;101729.02;;;8.96;50.80
77454;BME280;66538;53.150;18.160;2023-05-10T00:56:59;101728.56;;;8.95;51.21
77454;BME280;66538;53.150;18.160;2023-05-10T00:59:26;101727.03;;;8.95;51.43
77454;BME280;66538;53.150;18.160;2023-05-10T01:01:53;101723.08;;;8.95;51.41
77454;BME280;66538;53.150;18.160;2023-05-10T01:04:19;101720.11;;;8.93;51.53
77454;BME280;66538;53.150;18.160;2023-05-10T01:06:52;101717.75;;;8.89;51.32
77454;BME280;66538;53.150;18.160;2023-05-10T01:09:21;101718.84;;;8.90;51.27
77454;BME280;66538;53.150;18.160;2023-05-10T01:11:48;101716.48;;;8.87;51.62
77454;BME280;66538;53.150;18.160;2023-05-10T01:14:17;101714.14;;;8.83;51.42
77454;BME280;66538;53.150;18.160;2023-05-10T01:16:46;101718.41;;;8.81;51.42
77454;BME280;66538;53.150;18.160;2023-05-10T01:19:22;101718.89;;;8.81;52.01
77454;BME280;66538;53.150;18.160;2023-05-10T01:33:36;101706.08;;;8.67;51.87
77454;BME280;66538;53.150;18.160;2023-05-10T01:36:08;101705.88;;;8.63;52.44
77454;BME280;66538;53.150;18.160;2023-05-10T01:38:49;101705.03;;;8.62;52.46
77454;BME280;66538;53.150;18.160;2023-05-10T01:41:21;101697.84;;;8.60;52.54
77454;BME280;66538;53.150;18.160;2023-05-10T01:43:59;101697.20;;;8.58;52.99
77454;BME280;66538;53.150;18.160;2023-05-10T01:46:33;101699.03;;;8.54;52.82
77454;BME280;66538;53.150;18.160;2023-05-10T01:49:02;101700.25;;;8.53;52.87
77454;BME280;66538;53.150;18.160;2023-05-10T01:51:39;101693.65;;;8.49;53.10
77454;BME280;66538;53.150;18.160;2023-05-10T01:54:09;101688.96;;;8.45;52.96
77454;BME280;66538;53.150;18.160;2023-05-10T01:56:39;101689.09;;;8.40;52.76
77454;BME280;66538;53.150;18.160;2023-05-10T01:59:12;101689.02;;;8.37;53.12
77454;BME280;66538;53.150;18.160;2023-05-10T02:01:40;101690.44;;;8.36;53.38
77454;BME280;66538;53.150;18.160;2023-05-10T02:04:08;101686.48;;;8.34;53.12
77454;BME280;66538;53.150;18.160;2023-05-10T02:06:36;101685.64;;;8.31;53.05
77454;BME280;66538;53.150;18.160;2023-05-10T02:09:05;101679.20;;;8.27;53.25
77454;BME280;66538;53.150;18.160;2023-05-10T02:11:32;101677.92;;;8.23;52.93
77454;BME280;66538;53.150;18.160;2023-05-10T02:14:00;101679.92;;;8.22;53.38
77454;BME280;66538;53.150;18.160;2023-05-10T02:16:28;101679.46;;;8.19;53.49
77454;BME280;66538;53.150;18.160;2023-05-10T02:18:58;101678.93;;;8.15;53.63
77454;BME280;66538;53.150;18.160;2023-05-10T02:21:28;101674.14;;;8.12;53.62
77454;BME280;66538;53.150;18.160;2023-05-10T02:23:57;101674.52;;;8.09;53.57
77454;BME280;66538;53.150;18.160;2023-05-10T02:26:26;101670.02;;;8.06;53.72
77454;BME280;66538;53.150;18.160;2023-05-10T02:28:53;101667.54;;;8.02;53.85
77454;BME280;66538;53.150;18.160;2023-05-10T02:31:22;101670.62;;;7.99;53.61
77454;BME280;66538;53.150;18.160;2023-05-10T02:33:49;101670.73;;;7.95;53.81
77454;BME280;66538;53.150;18.160;2023-05-10T02:36:20;101672.31;;;7.93;53.80
77454;BME280;66538;53.150;18.160;2023-05-10T02:38:48;101670.11;;;7.90;54.19
77454;BME280;66538;53.150;18.160;2023-05-10T02:41:16;101671.27;;;7.89;54.30
77454;BME280;66538;53.150;18.160;2023-05-10T02:43:45;101671.31;;;7.87;54.22
77454;BME280;66538;53.150;18.160;2023-05-10T02:46:12;101669.52;;;7.85;54.10
77454;BME280;66538;53.150;18.160;2023-05-10T02:48:39;101672.35;;;7.82;54.21
77454;BME280;66538;53.150;18.160;2023-05-10T02:51:07;101669.84;;;7.79;54.46
77454;BME280;66538;53.150;18.160;2023-05-10T02:53:36;101669.34;;;7.76;54.55
77454;BME280;66538;53.150;18.160;2023-05-10T02:56:20;101671.44;;;7.75;54.74
77454;BME280;66538;53.150;18.160;2023-05-10T02:58:48;101673.83;;;7.73;54.64
77454;BME280;66538;53.150;18.160;2023-05-10T03:01:14;101672.38;;;7.73;54.44
77454;BME280;66538;53.150;18.160;2023-05-10T03:03:41;101670.02;;;7.72;54.71
77454;BME280;66538;53.150;18.160;2023-05-10T03:06:08;101670.23;;;7.72;54.72
77454;BME280;66538;53.150;18.160;2023-05-10T03:08:36;101666.30;;;7.70;54.35
77454;BME280;66538;53.150;18.160;2023-05-10T03:11:19;101668.39;;;7.72;54.45
77454;BME280;66538;53.150;18.160;2023-05-10T03:16:42;101671.97;;;7.76;54.77
77454;BME280;66538;53.150;18.160;2023-05-10T03:19:26;101668.91;;;7.77;54.41
77454;BME280;66538;53.150;18.160;2023-05-10T03:21:59;101671.42;;;7.79;54.36
77454;BME280;66538;53.150;18.160;2023-05-10T03:24:27;101669.43;;;7.82;54.40
77454;BME280;66538;53.150;18.160;2023-05-10T03:26:57;101671.61;;;7.84;54.28
77454;BME280;66538;53.150;18.160;2023-05-10T03:29:25;101671.96;;;7.85;54.46
77454;BME280;66538;53.150;18.160;2023-05-10T03:31:52;101671.80;;;7.89;54.71
77454;BME280;66538;53.150;18.160;2023-05-10T03:34:25;101669.22;;;7.92;54.57
77454;BME280;66538;53.150;18.160;2023-05-10T03:36:52;101674.39;;;7.97;54.66
77454;BME280;66538;53.150;18.160;2023-05-10T03:39:19;101670.32;;;7.99;54.46
77454;BME280;66538;53.150;18.160;2023-05-10T03:41:50;101670.98;;;8.06;54.23
77454;BME280;66538;53.150;18.160;2023-05-10T03:44:17;101668.58;;;8.11;54.25
77454;BME280;66538;53.150;18.160;2023-05-10T03:46:44;101666.41;;;8.17;54.37
77454;BME280;66538;53.150;18.160;2023-05-10T03:49:11;101666.60;;;8.23;54.38
77454;BME280;66538;53.150;18.160;2023-05-10T03:51:38;101665.98;;;8.28;54.15
77454;BME280;66538;53.150;18.160;2023-05-10T03:54:04;101663.39;;;8.32;54.30
77454;BME280;66538;53.150;18.160;2023-05-10T03:56:31;101661.60;;;8.38;53.83
77454;BME280;66538;53.150;18.160;2023-05-10T03:58:59;101663.65;;;8.44;53.58
77454;BME280;66538;53.150;18.160;2023-05-10T04:01:26;101664.02;;;8.52;53.66
77454;BME280;66538;53.150;18.160;2023-05-10T04:03:53;101662.09;;;8.59;53.61
77454;BME280;66538;53.150;18.160;2023-05-10T04:06:20;101663.19;;;8.66;53.45
77454;BME280;66538;53.150;18.160;2023-05-10T04:08:46;101659.36;;;8.73;53.31
77454;BME280;66538;53.150;18.160;2023-05-10T04:11:13;101660.02;;;8.80;52.92
77454;BME280;66538;53.150;18.160;2023-05-10T04:13:40;101657.19;;;8.89;52.81
77454;BME280;66538;53.150;18.160;2023-05-10T04:16:07;101660.13;;;8.97;52.89
77454;BME280;66538;53.150;18.160;2023-05-10T04:18:33;101661.71;;;9.04;52.40
77454;BME280;66538;53.150;18.160;2023-05-10T04:21:00;101660.25;;;9.11;52.28
77454;BME280;66538;53.150;18.160;2023-05-10T04:23:27;101661.86;;;9.19;52.11
77454;BME280;66538;53.150;18.160;2023-05-10T04:26:01;101656.52;;;9.25;52.03
77454;BME280;66538;53.150;18.160;2023-05-10T04:28:28;101657.82;;;9.35;51.74
77454;BME280;66538;53.150;18.160;2023-05-10T04:31:05;101652.23;;;9.42;51.90
77454;BME280;66538;53.150;18.160;2023-05-10T04:33:32;101650.82;;;9.52;51.73
77454;BME280;66538;53.150;18.160;2023-05-10T04:35:59;101649.48;;;9.60;51.41
77454;BME280;66538;53.150;18.160;2023-05-10T04:38:28;101652.40;;;9.70;50.98
77454;BME280;66538;53.150;18.160;2023-05-10T04:41:04;101653.35;;;9.79;51.21
77454;BME280;66538;53.150;18.160;2023-05-10T04:43:31;101653.80;;;9.89;51.04
77454;BME280;66538;53.150;18.160;2023-05-10T04:45:58;101656.62;;;9.96;50.80
77454;BME280;66538;53.150;18.160;2023-05-10T04:48:25;101652.34;;;10.04;50.48
77454;BME280;66538;53.150;18.160;2023-05-10T04:50:51;101650.04;;;10.11;50.24
77454;BME280;66538;53.150;18.160;2023-05-10T04:53:18;101651.39;;;10.19;50.18
77454;BME280;66538;53.150;18.160;2023-05-10T04:55:44;101653.92;;;10.26;49.90
77454;BME280;66538;53.150;18.160;2023-05-10T04:58:11;101654.50;;;10.33;49.81
77454;BME280;66538;53.150;18.160;2023-05-10T05:00:38;101658.23;;;10.40;49.73
77454;BME280;66538;53.150;18.160;2023-05-10T05:03:05;101655.34;;;10.45;49.68
77454;BME280;66538;53.150;18.160;2023-05-10T05:05:32;101650.04;;;10.52;49.80
77454;BME280;66538;53.150;18.160;2023-05-10T05:07:58;101650.61;;;10.58;49.64
77454;BME280;66538;53.150;18.160;2023-05-10T05:10:25;101648.92;;;10.67;49.67
77454;BME280;66538;53.150;18.160;2023-05-10T05:12:52;101647.08;;;10.74;49.61
77454;BME280;66538;53.150;18.160;2023-05-10T05:15:18;101646.09;;;10.83;49.38
77454;BME280;66538;53.150;18.160;2023-05-10T05:17:45;101647.48;;;10.91;49.17
77454;BME280;66538;53.150;18.160;2023-05-10T05:20:12;101645.80;;;10.98;48.84
77454;BME280;66538;53.150;18.160;2023-05-10T05:22:39;101642.34;;;11.08;49.01
77454;BME280;66538;53.150;18.160;2023-05-10T05:25:06;101644.73;;;11.17;48.98
77454;BME280;66538;53.150;18.160;2023-05-10T05:27:33;101642.46;;;11.26;48.62
77454;BME280;66538;53.150;18.160;2023-05-10T05:29:59;101642.19;;;11.34;48.36
77454;BME280;66538;53.150;18.160;2023-05-10T05:32:26;101638.15;;;11.41;48.50
77454;BME280;66538;53.150;18.160;2023-05-10T05:34:53;101645.08;;;11.50;48.26
77454;BME280;66538;53.150;18.160;2023-05-10T05:37:20;101634.97;;;11.59;48.20
77454;BME280;66538;53.150;18.160;2023-05-10T05:39:48;101635.01;;;11.70;47.80
77454;BME280;66538;53.150;18.160;2023-05-10T05:42:15;101635.83;;;11.79;47.43
77454;BME280;66538;53.150;18.160;2023-05-10T05:44:43;101631.88;;;11.89;47.50
77454;BME280;66538;53.150;18.160;2023-05-10T05:47:10;101634.27;;;12.00;46.96
77454;BME280;66538;53.150;18.160;2023-05-10T05:49:37;101634.43;;;12.09;47.06
77454;BME280;66538;53.150;18.160;2023-05-10T05:52:04;101638.24;;;12.21;46.83
77454;BME280;66538;53.150;18.160;2023-05-10T05:54:31;101635.25;;;12.31;46.56
77454;BME280;66538;53.150;18.160;2023-05-10T05:56:59;101637.59;;;12.43;46.41
77454;BME280;66538;53.150;18.160;2023-05-10T05:59:26;101636.77;;;12.54;45.93
77454;BME280;66538;53.150;18.160;2023-05-10T06:01:53;101637.25;;;12.66;45.36
77454;BME280;66538;53.150;18.160;2023-05-10T06:04:20;101632.44;;;12.76;45.06
77454;BME280;66538;53.150;18.160;2023-05-10T06:06:47;101632.91;;;12.89;45.22
77454;BME280;66538;53.150;18.160;2023-05-10T06:09:13;101634.00;;;13.01;45.15
77454;BME280;66538;53.150;18.160;2023-05-10T06:11:41;101635.95;;;13.13;44.66
77454;BME280;66538;53.150;18.160;2023-05-10T06:14:08;101635.32;;;13.27;44.47
77454;BME280;66538;53.150;18.160;2023-05-10T06:16:35;101633.38;;;13.40;44.03
77454;BME280;66538;53.150;18.160;2023-05-10T06:19:02;101638.61;;;13.52;43.77
77454;BME280;66538;53.150;18.160;2023-05-10T06:21:29;101634.25;;;13.65;43.60
77454;BME280;66538;53.150;18.160;2023-05-10T06:23:56;101637.20;;;13.78;43.17
77454;BME280;66538;53.150;18.160;2023-05-10T06:26:23;101638.02;;;13.90;42.64
77454;BME280;66538;53.150;18.160;2023-05-10T06:28:49;101635.52;;;14.03;42.12
77454;BME280;66538;53.150;18.160;2023-05-10T06:31:16;101631.52;;;14.14;41.77
77454;BME280;66538;53.150;18.160;2023-05-10T06:33:43;101635.08;;;14.27;41.32
77454;BME280;66538;53.150;18.160;2023-05-10T06:36:10;101634.48;;;14.40;40.50
77454;BME280;66538;53.150;18.160;2023-05-10T06:38:36;101634.01;;;14.49;40.61
77454;BME280;66538;53.150;18.160;2023-05-10T06:41:03;101629.30;;;14.60;40.97
77454;BME280;66538;53.150;18.160;2023-05-10T06:43:30;101630.13;;;14.73;40.58
77454;BME280;66538;53.150;18.160;2023-05-10T06:45:57;101626.14;;;14.84;39.61
77454;BME280;66538;53.150;18.160;2023-05-10T06:48:23;101624.05;;;14.96;38.98
77454;BME280;66538;53.150;18.160;2023-05-10T06:50:50;101617.64;;;15.05;38.65
77454;BME280;66538;53.150;18.160;2023-05-10T06:53:16;101618.16;;;15.13;38.85
77454;BME280;66538;53.150;18.160;2023-05-10T06:55:43;101623.01;;;15.26;38.80
77454;BME280;66538;53.150;18.160;2023-05-10T06:58:10;101621.46;;;15.37;38.72
77454;BME280;66538;53.150;18.160;2023-05-10T07:00:36;101619.02;;;15.49;38.72
77454;BME280;66538;53.150;18.160;2023-05-10T07:03:06;101618.10;;;15.60;38.32
77454;BME280;66538;53.150;18.160;2023-05-10T07:05:33;101618.91;;;15.72;37.94
77454;BME280;66538;53.150;18.160;2023-05-10T07:08:00;101613.77;;;15.83;37.31
77454;BME280;66538;53.150;18.160;2023-05-10T07:10:27;101619.42;;;15.94;37.12
77454;BME280;66538;53.150;18.160;2023-05-10T07:12:54;101619.30;;;16.04;37.14
77454;BME280;66538;53.150;18.160;2023-05-10T07:15:20;101612.13;;;16.14;36.83
77454;BME280;66538;53.150;18.160;2023-05-10T07:17:47;101614.13;;;16.24;36.81
77454;BME280;66538;53.150;18.160;2023-05-10T07:20:13;101611.55;;;16.34;36.63
77454;BME280;66538;53.150;18.160;2023-05-10T07:22:40;101613.25;;;16.43;36.27
77454;BME280;66538;53.150;18.160;2023-05-10T07:25:07;101613.77;;;16.50;35.87
77454;BME280;66538;53.150;18.160;2023-05-10T07:27:34;101612.48;;;16.61;36.00
77454;BME280;66538;53.150;18.160;2023-05-10T07:30:00;101607.67;;;16.71;35.94
77454;BME280;66538;53.150;18.160;2023-05-10T07:32:27;101606.59;;;16.80;35.36
77454;BME280;66538;53.150;18.160;2023-05-10T07:34:54;101609.70;;;16.89;34.85
77454;BME280;66538;53.150;18.160;2023-05-10T07:37:21;101606.31;;;16.92;34.38
77454;BME280;66538;53.150;18.160;2023-05-10T07:39:47;101604.46;;;16.96;34.46
77454;BME280;66538;53.150;18.160;2023-05-10T07:42:14;101602.12;;;17.00;34.57
77454;BME280;66538;53.150;18.160;2023-05-10T07:44:41;101605.54;;;17.08;34.63
77454;BME280;66538;53.150;18.160;2023-05-10T07:47:08;101605.39;;;17.17;34.54
77454;BME280;66538;53.150;18.160;2023-05-10T07:49:34;101608.37;;;17.27;34.47
77454;BME280;66538;53.150;18.160;2023-05-10T07:52:03;101604.80;;;17.37;34.19
77454;BME280;66538;53.150;18.160;2023-05-10T07:54:30;101607.75;;;17.49;34.35
77454;BME280;66538;53.150;18.160;2023-05-10T07:56:56;101603.74;;;17.58;33.80
77454;BME280;66538;53.150;18.160;2023-05-10T07:59:23;101602.00;;;17.66;33.98
77454;BME280;66538;53.150;18.160;2023-05-10T08:01:50;101605.54;;;17.77;33.95
77454;BME280;66538;53.150;18.160;2023-05-10T08:04:16;101605.05;;;17.89;33.66
77454;BME280;66538;53.150;18.160;2023-05-10T08:06:43;101601.46;;;17.98;33.15
77454;BME280;66538;53.150;18.160;2023-05-10T08:09:09;101601.85;;;18.05;32.63
77454;BME280;66538;53.150;18.160;2023-05-10T08:11:37;101607.92;;;18.10;32.63
77454;BME280;66538;53.150;18.160;2023-05-10T08:14:03;101598.56;;;18.12;32.09
77454;BME280;66538;53.150;18.160;2023-05-10T08:16:30;101593.05;;;18.16;32.25
77454;BME280;66538;53.150;18.160;2023-05-10T08:18:57;101590.38;;;18.22;32.18
77454;BME280;66538;53.150;18.160;2023-05-10T08:21:23;101591.20;;;18.30;31.59
77454;BME280;66538;53.150;18.160;2023-05-10T08:23:50;101587.70;;;18.33;31.48
77454;BME280;66538;53.150;18.160;2023-05-10T08:26:17;101596.54;;;18.45;31.10
77454;BME280;66538;53.150;18.160;2023-05-10T08:28:43;101599.11;;;18.52;30.56
77454;BME280;66538;53.150;18.160;2023-05-10T08:31:10;101600.80;;;18.54;29.77
77454;BME280;66538;53.150;18.160;2023-05-10T08:33:36;101600.47;;;18.53;29.63
77454;BME280;66538;53.150;18.160;2023-05-10T08:36:03;101592.96;;;18.55;29.64
77454;BME280;66538;53.150;18.160;2023-05-10T08:38:30;101589.52;;;18.59;30.05
77454;BME280;66538;53.150;18.160;2023-05-10T08:40:57;101591.35;;;18.59;29.59
77454;BME280;66538;53.150;18.160;2023-05-10T08:43:26;101590.67;;;18.56;29.78
77454;BME280;66538;53.150;18.160;2023-05-10T08:45:54;101592.56;;;18.62;29.96
77454;BME280;66538;53.150;18.160;2023-05-10T08:48:22;101596.04;;;18.73;30.04
77454;BME280;66538;53.150;18.160;2023-05-10T08:50:52;101594.70;;;18.85;29.58
77454;BME280;66538;53.150;18.160;2023-05-10T08:53:20;101591.39;;;18.91;29.43
77454;BME280;66538;53.150;18.160;2023-05-10T08:55:51;101589.67;;;18.94;28.88
77454;BME280;66538;53.150;18.160;2023-05-10T08:58:19;101595.15;;;18.96;29.07
77454;BME280;66538;53.150;18.160;2023-05-10T09:00:48;101588.52;;;19.00;29.08
77454;BME280;66538;53.150;18.160;2023-05-10T09:03:15;101579.64;;;19.08;28.93
77454;BME280;66538;53.150;18.160;2023-05-10T09:05:41;101586.55;;;19.17;28.93
77454;BME280;66538;53.150;18.160;2023-05-10T09:08:08;101585.23;;;19.24;29.07
77454;BME280;66538;53.150;18.160;2023-05-10T09:10:36;101588.27;;;19.29;28.85
77454;BME280;66538;53.150;18.160;2023-05-10T09:13:04;101588.88;;;19.35;28.73
77454;BME280;66538;53.150;18.160;2023-05-10T09:15:31;101584.58;;;19.38;28.24
77454;BME280;66538;53.150;18.160;2023-05-10T09:17:58;101588.77;;;19.40;27.99
77454;BME280;66538;53.150;18.160;2023-05-10T09:20:25;101581.10;;;19.40;28.32
77454;BME280;66538;53.150;18.160;2023-05-10T09:22:52;101579.61;;;19.46;28.16
77454;BME280;66538;53.150;18.160;2023-05-10T09:25:19;101574.73;;;19.50;28.59
77454;BME280;66538;53.150;18.160;2023-05-10T09:27:47;101571.28;;;19.59;28.14
77454;BME280;66538;53.150;18.160;2023-05-10T09:30:23;101574.77;;;19.71;28.18
77454;BME280;66538;53.150;18.160;2023-05-10T09:32:52;101576.84;;;19.80;27.25
77454;BME280;66538;53.150;18.160;2023-05-10T09:35:21;101572.02;;;19.81;27.25
77454;BME280;66538;53.150;18.160;2023-05-10T09:37:53;101570.95;;;19.85;27.19
77454;BME280;66538;53.150;18.160;2023-05-10T09:40:25;101576.45;;;19.83;27.53
77454;BME280;66538;53.150;18.160;2023-05-10T09:42:58;101570.88;;;19.88;27.91
77454;BME280;66538;53.150;18.160;2023-05-10T09:45:32;101571.38;;;19.98;27.67
77454;BME280;66538;53.150;18.160;2023-05-10T09:48:01;101569.52;;;20.12;27.06
77454;BME280;66538;53.150;18.160;2023-05-10T09:50:29;101567.40;;;20.18;27.03
77454;BME280;66538;53.150;18.160;2023-05-10T09:53:01;101565.07;;;20.27;27.30
77454;BME280;66538;53.150;18.160;2023-05-10T09:55:50;101566.97;;;20.33;27.00
77454;BME280;66538;53.150;18.160;2023-05-10T09:58:17;101567.14;;;20.41;26.75
77454;BME280;66538;53.150;18.160;2023-05-10T10:00:45;101568.29;;;20.46;26.88
77454;BME280;66538;53.150;18.160;2023-05-10T10:03:16;101569.11;;;20.51;26.88
77454;BME280;66538;53.150;18.160;2023-05-10T10:05:44;101562.97;;;20.54;26.43
77454;BME280;66538;53.150;18.160;2023-05-10T10:08:12;101564.29;;;20.54;26.67
77454;BME280;66538;53.150;18.160;2023-05-10T10:10:39;101559.34;;;20.58;26.69
77454;BME280;66538;53.150;18.160;2023-05-10T10:13:07;101552.36;;;20.62;27.05
77454;BME280;66538;53.150;18.160;2023-05-10T10:15:35;101544.09;;;20.75;27.00
77454;BME280;66538;53.150;18.160;2023-05-10T10:18:02;101547.35;;;20.87;26.85
77454;BME280;66538;53.150;18.160;2023-05-10T10:20:32;101542.33;;;20.98;26.55
77454;BME280;66538;53.150;18.160;2023-05-10T10:22:58;101542.23;;;21.00;26.18
77454;BME280;66538;53.150;18.160;2023-05-10T10:25:25;101541.46;;;20.98;26.26
77454;BME280;66538;53.150;18.160;2023-05-10T10:35:47;101536.64;;;21.12;26.95
77454;BME280;66538;53.150;18.160;2023-05-10T10:38:14;101531.23;;;21.25;26.85
77454;BME280;66538;53.150;18.160;2023-05-10T10:40:40;101536.70;;;21.40;26.87
77454;BME280;66538;53.150;18.160;2023-05-10T10:43:27;101536.73;;;21.52;26.50
77454;BME280;66538;53.150;18.160;2023-05-10T10:46:13;101532.17;;;21.62;26.09
77454;BME280;66538;53.150;18.160;2023-05-10T10:48:43;101528.21;;;21.65;26.24
77454;BME280;66538;53.150;18.160;2023-05-10T10:51:13;101528.19;;;21.72;26.10
77454;BME280;66538;53.150;18.160;2023-05-10T10:53:40;101526.73;;;21.76;25.64
77454;BME280;66538;53.150;18.160;2023-05-10T10:56:10;101519.93;;;21.75;25.67
77454;BME280;66538;53.150;18.160;2023-05-10T10:58:38;101524.29;;;21.77;25.91
77454;BME280;66538;53.150;18.160;2023-05-10T11:01:16;101524.63;;;21.82;25.91
77454;BME280;66538;53.150;18.160;2023-05-10T11:06:32;101528.69;;;21.91;25.68
77454;BME280;66538;53.150;18.160;2023-05-10T11:09:11;101519.84;;;21.98;25.99
77454;BME280;66538;53.150;18.160;2023-05-10T11:11:54;101519.75;;;22.11;25.76
77454;BME280;66538;53.150;18.160;2023-05-10T11:14:25;101524.10;;;22.23;25.36
77454;BME280;66538;53.150;18.160;2023-05-10T11:16:52;101528.41;;;22.31;24.61
77454;BME280;66538;53.150;18.160;2023-05-10T11:19:19;101519.80;;;22.33;24.17
77454;BME280;66538;53.150;18.160;2023-05-10T11:24:31;101521.73;;;22.36;24.49
77454;BME280;66538;53.150;18.160;2023-05-10T11:26:59;101517.92;;;22.23;24.39
77454;BME280;66538;53.150;18.160;2023-05-10T11:29:27;101519.44;;;22.27;25.11
77454;BME280;66538;53.150;18.160;2023-05-10T11:31:57;101518.54;;;22.39;25.06
77454;BME280;66538;53.150;18.160;2023-05-10T11:34:29;101515.83;;;22.48;24.25
77454;BME280;66538;53.150;18.160;2023-05-10T11:36:57;101511.65;;;22.51;23.99
77454;BME280;66538;53.150;18.160;2023-05-10T11:39:28;101513.80;;;22.51;24.04
77454;BME280;66538;53.150;18.160;2023-05-10T11:41:56;101505.16;;;22.58;24.22
77454;BME280;66538;53.150;18.160;2023-05-10T11:44:23;101511.02;;;22.75;24.11
77454;BME280;66538;53.150;18.160;2023-05-10T11:46:51;101510.16;;;22.84;23.97
77454;BME280;66538;53.150;18.160;2023-05-10T11:49:18;101508.97;;;22.89;24.03
77454;BME280;66538;53.150;18.160;2023-05-10T11:51:44;101506.46;;;22.94;23.93
77454;BME280;66538;53.150;18.160;2023-05-10T11:54:12;101503.58;;;23.00;23.54
77454;BME280;66538;53.150;18.160;2023-05-10T11:56:39;101504.88;;;23.08;23.37
77454;BME280;66538;53.150;18.160;2023-05-10T11:59:06;101506.59;;;23.20;23.21
77454;BME280;66538;53.150;18.160;2023-05-10T12:01:34;101494.00;;;23.24;23.25
77454;BME280;66538;53.150;18.160;2023-05-10T12:04:02;101498.40;;;23.29;23.05
77454;BME280;66538;53.150;18.160;2023-05-10T12:06:31;101498.27;;;23.35;22.65
77454;BME280;66538;53.150;18.160;2023-05-10T12:08:58;101496.40;;;23.31;22.52
77454;BME280;66538;53.150;18.160;2023-05-10T12:11:27;101498.45;;;23.32;22.49
77454;BME280;66538;53.150;18.160;2023-05-10T12:13:55;101495.77;;;23.34;22.24
77454;BME280;66538;53.150;18.160;2023-05-10T12:16:23;101495.60;;;23.40;21.80
77454;BME280;66538;53.150;18.160;2023-05-10T12:18:51;101493.36;;;23.49;21.96
77454;BME280;66538;53.150;18.160;2023-05-10T12:21:20;101488.27;;;23.57;21.33
77454;BME280;66538;53.150;18.160;2023-05-10T12:23:51;101487.98;;;23.68;21.64
77454;BME280;66538;53.150;18.160;2023-05-10T12:26:22;101489.59;;;23.90;21.57
77454;BME280;66538;53.150;18.160;2023-05-10T12:28:49;101486.59;;;24.09;21.41
77454;BME280;66538;53.150;18.160;2023-05-10T12:31:16;101487.13;;;24.28;21.85
77454;BME280;66538;53.150;18.160;2023-05-10T12:33:44;101485.55;;;24.50;21.52
77454;BME280;66538;53.150;18.160;2023-05-10T12:36:13;101489.64;;;24.66;21.24
77454;BME280;66538;53.150;18.160;2023-05-10T12:38:45;101500.23;;;24.76;20.60
77454;BME280;66538;53.150;18.160;2023-05-10T12:41:18;101488.94;;;24.78;20.42
77454;BME280;66538;53.150;18.160;2023-05-10T12:43:45;101498.89;;;24.79;20.67
77454;BME280;66538;53.150;18.160;2023-05-10T12:46:15;101494.16;;;24.87;20.79
77454;BME280;66538;53.150;18.160;2023-05-10T12:48:44;101496.67;;;24.98;20.59
77454;BME280;66538;53.150;18.160;2023-05-10T12:51:11;101498.06;;;25.04;20.20
77454;BME280;66538;53.150;18.160;2023-05-10T12:53:41;101490.15;;;25.12;20.05
77454;BME280;66538;53.150;18.160;2023-05-10T12:56:08;101490.60;;;25.27;20.36
77454;BME280;66538;53.150;18.160;2023-05-10T12:58:34;101486.52;;;26.06;19.70
77454;BME280;66538;53.150;18.160;2023-05-10T13:01:02;101483.66;;;27.57;17.89
77454;BME280;66538;53.150;18.160;2023-05-10T13:03:29;101474.05;;;28.93;17.20
77454;BME280;66538;53.150;18.160;2023-05-10T13:05:55;101471.66;;;29.79;15.79
77454;BME280;66538;53.150;18.160;2023-05-10T13:08:22;101478.87;;;30.50;14.99
77454;BME280;66538;53.150;18.160;2023-05-10T13:10:49;101481.04;;;31.00;14.83
77454;BME280;66538;53.150;18.160;2023-05-10T13:13:16;101462.78;;;31.56;14.61
77454;BME280;66538;53.150;18.160;2023-05-10T13:15:42;101465.86;;;32.30;14.28